Time;durP1;ratioP1;P1;durP2;ratioP2;P2;SDS_P1;SDS_P2;PMS_P1;PMS_P2;Temp;Humidity;BMP_temperature;BMP_pressure;BME280_temperature;BME280_humidity;BME280_pressure;Samples;Min_cycle;Max_cycle;Signal;HPM_P1;HPM_P2
2021/03/14 00:00:39;;;;;;;64.30;42.83;;;;;;;8.64;60.24;99505.28;5075289;28;20430;-78
2021/03/14 00:03:06;;;;;;;59.97;41.72;;;;;;;8.60;60.37;99509.25;5057501;28;20029;-78
2021/03/14 00:05:34;;;;;;;59.10;40.80;;;;;;;8.57;60.43;99506.94;5057291;28;20020;-80
2021/03/14 00:08:00;;;;;;;58.58;39.08;;;;;;;8.24;60.68;99449.06;5057583;28;20139;-81
2021/03/14 00:10:25;;;;;;;57.58;38.85;;;;;;;8.13;60.04;99422.25;5075285;28;20136;-79
2021/03/14 00:12:51;;;;;;;56.70;39.53;;;;;;;8.56;60.41;99502.69;5075006;28;20423;-78
2021/03/14 00:15:24;;;;;;;56.47;37.90;;;;;;;8.21;60.35;99436.25;5079341;28;20081;-78
2021/03/14 00:17:49;;;;;;;53.38;36.05;;;;;;;8.54;60.12;99496.75;5083537;28;20067;-80
2021/03/14 00:20:17;;;;;;;50.70;37.13;;;;;;;8.33;60.44;99464.84;5075324;28;20036;-79
2021/03/14 00:22:43;;;;;;;54.58;36.08;;;;;;;8.49;60.06;99486.72;5075296;28;20056;-79
2021/03/14 00:25:09;;;;;;;51.85;36.38;;;;;;;8.48;60.95;99473.75;5075313;28;20074;-80
2021/03/14 00:27:36;;;;;;;53.63;37.00;;;;;;;8.34;60.48;99459.44;5074893;28;20410;-79
2021/03/14 00:30:04;;;;;;;50.60;35.97;;;;;;;8.26;60.48;99441.00;5057288;28;20029;-78
2021/03/14 00:32:30;;;;;;;50.38;38.05;;;;;;;7.94;60.81;99397.13;5074798;28;20024;-79
2021/03/14 00:34:55;;;;;;;48.25;33.92;;;;;;;8.02;60.26;99414.69;5057300;28;20520;-79
2021/03/14 00:37:24;;;;;;;52.28;35.80;;;;;;;8.42;60.93;99459.44;5075142;28;20025;-81
2021/03/14 00:39:49;;;;;;;55.58;38.63;;;;;;;8.31;61.10;99448.41;5074853;28;20396;-80
2021/03/14 00:42:14;;;;;;;57.83;39.78;;;;;;;8.40;60.57;99473.75;5074757;28;20093;-79
2021/03/14 00:44:40;;;;;;;55.25;37.03;;;;;;;7.90;60.55;99395.81;5074574;28;20312;-79
2021/03/14 00:47:06;;;;;;;51.15;35.78;;;;;;;8.19;60.72;99440.03;5074845;28;20024;-80
2021/03/14 00:49:31;;;;;;;52.53;36.90;;;;;;;7.79;61.00;99365.41;5074777;28;20334;-79
2021/03/14 00:51:57;;;;;;;50.58;35.33;;;;;;;8.34;61.28;99450.72;5074749;28;20036;-79
2021/03/14 00:54:22;;;;;;;47.00;35.22;;;;;;;8.32;61.00;99445.59;5075088;28;20024;-79
2021/03/14 00:56:48;;;;;;;49.25;34.33;;;;;;;8.15;61.55;99422.91;5056771;28;20400;-81
2021/03/14 00:59:13;;;;;;;46.40;34.47;;;;;;;8.25;61.11;99444.63;5074571;28;20032;-78
2021/03/14 01:01:39;;;;;;;41.45;31.85;;;;;;;7.93;60.94;99385.78;5074599;28;20020;-81
2021/03/14 01:04:04;;;;;;;45.33;34.08;;;;;;;7.83;60.92;99371.16;5059771;28;20036;-80
2021/03/14 01:06:30;;;;;;;47.83;33.22;;;;;;;8.29;61.27;99446.75;5078742;28;20031;-81
2021/03/14 01:08:56;;;;;;;46.33;32.28;;;;;;;8.28;61.04;99444.28;5078438;28;20039;-80
2021/03/14 01:11:21;;;;;;;44.03;32.47;;;;;;;8.12;61.59;99431.94;5078408;28;20433;-83
2021/03/14 01:13:47;;;;;;;39.75;29.85;;;;;;;8.19;61.20;99451.38;5078265;28;20028;-81
2021/03/14 01:16:13;;;;;;;45.28;32.75;;;;;;;8.22;61.58;99450.22;5078348;28;20116;-82
2021/03/14 01:18:38;;;;;;;42.30;30.17;;;;;;;7.67;61.09;99363.28;5078507;28;20035;-80
2021/03/14 01:21:04;;;;;;;38.00;28.38;;;;;;;8.21;60.80;99449.41;5060570;28;20021;-81
2021/03/14 01:23:30;;;;;;;35.78;27.95;;;;;;;7.82;61.45;99385.28;5080653;28;20051;-80
2021/03/14 01:25:55;;;;;;;38.40;28.65;;;;;;;8.14;61.66;99437.03;5078761;28;20036;-81
2021/03/14 01:28:21;;;;;;;38.97;28.10;;;;;;;7.30;61.26;99298.88;5078526;28;20028;-80
2021/03/14 01:30:46;;;;;;;39.72;27.98;;;;;;;7.95;61.03;99404.84;5078188;28;20071;-78
2021/03/14 01:33:11;;;;;;;37.75;27.80;;;;;;;7.92;61.17;99409.59;5060209;28;20120;-81
2021/03/14 01:35:37;;;;;;;39.95;27.85;;;;;;;7.80;60.64;99387.25;5077847;28;20021;-80
2021/03/14 01:38:02;;;;;;;35.90;27.75;;;;;;;8.04;61.06;99426.69;5078236;28;20031;-81
2021/03/14 01:40:28;;;;;;;44.53;31.30;;;;;;;7.54;61.29;99354.06;5060162;28;20118;-81
2021/03/14 01:42:54;;;;;;;43.72;31.67;;;;;;;7.82;61.00;99393.19;5077814;28;20094;-80
2021/03/14 01:45:20;;;;;;;42.90;31.67;;;;;;;7.22;60.81;99296.25;5078020;28;20345;-80
2021/03/14 01:47:49;;;;;;;39.78;29.92;;;;;;;7.38;61.06;99333.03;5077657;28;20020;-79
2021/03/14 01:50:23;;;;;;;36.97;26.48;;;;;;;7.79;60.91;99401.38;5077797;28;20035;-81
2021/03/14 01:52:49;;;;;;;35.88;26.73;;;;;;;7.86;60.83;99410.25;5059905;28;20028;-80
2021/03/14 01:55:17;;;;;;;37.97;28.33;;;;;;;7.78;61.58;99405.81;5077435;28;20089;-80
2021/03/14 01:57:44;;;;;;;37.80;29.10;;;;;;;7.70;61.21;99405.81;5059634;28;20058;-79
2021/03/14 02:00:12;;;;;;;33.75;26.30;;;;;;;7.77;61.06;99408.63;5059705;28;20034;-82
2021/03/14 02:02:38;;;;;;;34.45;25.52;;;;;;;6.96;61.37;99291.13;5059590;28;20425;-80
2021/03/14 02:05:07;;;;;;;36.60;26.45;;;;;;;7.43;61.39;99370.16;5083044;23;20044;-84
2021/03/14 02:07:33;;;;;;;30.85;24.75;;;;;;;7.36;61.09;99365.69;5078149;28;20058;-80
2021/03/14 02:09:59;;;;;;;34.42;27.50;;;;;;;7.63;60.97;99403.03;5087464;28;20086;-80
2021/03/14 02:12:27;;;;;;;33.95;25.52;;;;;;;7.17;61.13;99343.16;5061961;28;20028;-80
2021/03/14 02:14:59;;;;;;;34.72;24.35;;;;;;;7.48;61.13;99398.56;5059741;28;20052;-81
2021/03/14 02:17:29;;;;;;;30.73;23.08;;;;;;;6.93;60.96;99331.63;5059536;28;20419;-82
2021/03/14 02:20:23;;;;;;;30.25;22.17;;;;;;;7.15;60.89;99392.38;5077323;28;20372;-80
2021/03/14 02:22:53;;;;;;;28.98;21.02;;;;;;;6.60;61.17;99293.94;5074206;28;20032;-80
2021/03/14 02:25:35;;;;;;;28.55;22.27;;;;;;;6.94;61.12;99338.50;5077723;28;20103;-81
2021/03/14 02:28:02;;;;;;;30.67;22.65;;;;;;;6.94;61.13;99335.88;5077901;28;20032;-80
2021/03/14 02:30:28;;;;;;;31.88;24.58;;;;;;;7.42;60.92;99407.06;5077239;28;20337;-80
2021/03/14 02:32:54;;;;;;;35.38;25.17;;;;;;;7.44;61.22;99402.50;5076799;28;20032;-77
2021/03/14 02:35:20;;;;;;;29.67;22.85;;;;;;;7.43;60.73;99396.41;5076735;28;20054;-77
2021/03/14 02:37:48;;;;;;;35.40;26.08;;;;;;;7.05;60.92;99345.28;5076415;28;20028;-79
2021/03/14 02:40:14;;;;;;;33.33;24.35;;;;;;;7.34;60.60;99402.59;5076722;28;20060;-78
2021/03/14 02:42:41;;;;;;;32.00;24.38;;;;;;;6.89;60.83;99324.22;5076601;28;20020;-78
2021/03/14 02:45:09;;;;;;;34.58;25.75;;;;;;;6.78;61.00;99317.47;5076624;28;20419;-77
2021/03/14 02:47:34;;;;;;;35.40;25.75;;;;;;;7.27;60.86;99394.56;5076607;28;20028;-76
2021/03/14 02:50:01;;;;;;;33.92;25.23;;;;;;;6.97;60.81;99348.69;5076571;28;20418;-78
2021/03/14 02:52:27;;;;;;;38.17;26.27;;;;;;;6.94;60.66;99349.00;5076492;28;20048;-78
2021/03/14 02:54:55;;;;;;;33.55;25.08;;;;;;;7.37;61.15;99415.41;5076330;28;20020;-80
2021/03/14 02:57:22;;;;;;;32.90;24.70;;;;;;;7.33;61.10;99412.28;5076297;28;20035;-77
2021/03/14 02:59:52;;;;;;;33.42;23.55;;;;;;;7.16;60.91;99401.91;5076303;28;20103;-79
2021/03/14 03:02:18;;;;;;;31.80;24.45;;;;;;;7.26;60.96;99413.91;5076658;28;20025;-80
2021/03/14 03:04:45;;;;;;;39.58;26.17;;;;;;;6.95;61.01;99371.66;5076209;28;20453;-78
2021/03/14 03:07:14;;;;;;;35.80;25.17;;;;;;;7.11;61.14;99391.06;5058589;28;20033;-78
2021/03/14 03:09:40;;;;;;;32.80;25.27;;;;;;;7.27;60.95;99418.19;5076046;28;20500;-78
2021/03/14 03:12:07;;;;;;;32.40;24.27;;;;;;;7.27;60.84;99412.94;5076160;28;20035;-78
2021/03/14 03:14:33;;;;;;;35.75;24.42;;;;;;;7.28;60.82;99426.88;5081023;28;20041;-78
2021/03/14 03:16:59;;;;;;;30.80;24.35;;;;;;;7.24;60.82;99410.63;5064476;28;20024;-78
2021/03/14 03:19:25;;;;;;;32.35;23.25;;;;;;;6.85;60.88;99354.41;5076153;28;20028;-80
2021/03/14 03:21:51;;;;;;;32.95;23.75;;;;;;;7.24;60.95;99418.50;5075816;28;20056;-78
2021/03/14 03:24:18;;;;;;;30.57;23.83;;;;;;;7.21;61.21;99410.13;5076049;28;20392;-80
2021/03/14 03:26:46;;;;;;;31.10;23.77;;;;;;;7.24;61.00;99415.06;5075619;28;20426;-80
2021/03/14 03:29:16;;;;;;;35.08;25.92;;;;;;;6.54;60.87;99325.22;5058103;28;20025;-79
2021/03/14 03:31:42;;;;;;;37.72;26.95;;;;;;;6.60;60.44;99329.84;5075494;28;20056;-79
2021/03/14 03:34:09;;;;;;;41.28;27.00;;;;;;;6.80;60.93;99359.31;5075620;28;20066;-79
2021/03/14 03:36:35;;;;;;;43.20;29.85;;;;;;;6.86;60.85;99383.09;5057761;28;20056;-80
2021/03/14 03:39:05;;;;;;;46.10;29.98;;;;;;;7.00;60.64;99406.13;5075450;28;20028;-80
2021/03/14 03:41:31;;;;;;;39.85;28.23;;;;;;;7.18;60.48;99439.31;5075515;28;20033;-80
2021/03/14 03:43:59;;;;;;;42.67;29.25;;;;;;;7.05;60.57;99424.03;5075251;28;20090;-80
2021/03/14 03:46:25;;;;;;;41.35;27.45;;;;;;;6.94;60.63;99440.88;5057721;28;20016;-79
2021/03/14 03:48:56;;;;;;;34.58;24.27;;;;;;;6.93;61.15;99443.66;5057505;28;20077;-82
2021/03/14 03:51:26;;;;;;;29.50;23.33;;;;;;;6.21;60.59;99329.50;5057880;28;20461;-80
2021/03/14 03:53:53;;;;;;;31.33;22.37;;;;;;;6.53;61.07;99405.72;5075209;28;20107;-80
2021/03/14 03:56:19;;;;;;;33.47;23.70;;;;;;;6.67;61.03;99438.41;5075028;28;20016;-79
2021/03/14 03:58:45;;;;;;;32.55;23.13;;;;;;;6.63;61.11;99432.66;5075147;28;20101;-80
2021/03/14 04:01:12;;;;;;;30.55;22.02;;;;;;;6.57;61.01;99435.06;5075061;28;20052;-79
2021/03/14 04:03:41;;;;;;;31.83;22.80;;;;;;;5.90;61.10;99352.69;5057562;28;20052;-80
2021/03/14 04:06:07;;;;;;;39.20;26.95;;;;;;;6.36;61.06;99414.47;5075008;28;20056;-81
2021/03/14 04:08:35;;;;;;;37.80;25.57;;;;;;;6.55;61.19;99435.22;5074998;28;20119;-79
2021/03/14 04:11:06;;;;;;;38.47;28.13;;;;;;;6.50;61.37;99418.31;5075010;28;20070;-79
2021/03/14 04:13:34;;;;;;;37.08;26.23;;;;;;;6.15;61.34;99357.16;5074966;28;20082;-80
2021/03/14 04:16:02;;;;;;;35.87;26.93;;;;;;;6.59;61.05;99417.38;5074804;28;20039;-80
2021/03/14 04:18:29;;;;;;;36.92;25.50;;;;;;;6.31;61.13;99374.78;5057072;28;20119;-81
2021/03/14 04:20:56;;;;;;;32.63;25.07;;;;;;;6.63;60.83;99416.09;5074915;28;20103;-79
2021/03/14 04:23:23;;;;;;;37.17;25.52;;;;;;;6.64;61.07;99415.94;5093764;28;20129;-81
2021/03/14 04:25:55;;;;;;;36.33;26.07;;;;;;;6.56;60.94;99400.16;5082281;28;20035;-85
2021/03/14 04:28:22;;;;;;;39.55;26.05;;;;;;;6.41;60.80;99385.16;5057233;28;20047;-79
2021/03/14 04:30:48;;;;;;;43.90;30.65;;;;;;;6.68;60.69;99408.56;5057171;28;20033;-81
2021/03/14 04:33:17;;;;;;;39.92;27.08;;;;;;;6.67;60.94;99393.81;5074980;28;20094;-80
2021/03/14 04:35:44;;;;;;;36.07;26.93;;;;;;;6.48;60.76;99378.31;5074767;28;20082;-80
2021/03/14 04:38:09;;;;;;;40.85;27.25;;;;;;;6.66;60.25;99387.75;5074153;28;20089;-81
2021/03/14 04:40:36;;;;;;;40.40;28.23;;;;;;;6.63;60.52;99380.19;5056941;28;20028;-81
2021/03/14 04:43:04;;;;;;;38.50;27.33;;;;;;;6.45;60.62;99350.59;5074468;28;20048;-83
2021/03/14 04:45:31;;;;;;;39.28;28.63;;;;;;;6.65;60.59;99387.91;5074740;28;20028;-77
2021/03/14 04:47:57;;;;;;;43.22;29.02;;;;;;;6.14;60.64;99312.75;5074603;28;20071;-80
2021/03/14 04:50:24;;;;;;;37.70;28.75;;;;;;;6.63;60.14;99382.81;5074537;28;20036;-80
2021/03/14 04:52:53;;;;;;;45.08;31.02;;;;;;;6.14;60.66;99302.25;5074702;28;20461;-81
2021/03/14 04:55:20;;;;;;;45.30;31.27;;;;;;;6.21;60.26;99329.50;5074548;28;20028;-79
2021/03/14 04:57:48;;;;;;;42.90;27.90;;;;;;;6.65;60.18;99390.53;5056749;28;20024;-80
2021/03/14 05:00:16;;;;;;;43.87;29.77;;;;;;;6.11;60.27;99298.16;5074721;28;20427;-81
2021/03/14 05:02:44;;;;;;;37.83;27.73;;;;;;;6.56;60.45;99370.47;5075791;28;20107;-78
2021/03/14 05:05:11;;;;;;;34.50;26.23;;;;;;;6.67;60.25;99384.13;5075412;28;20028;-76
2021/03/14 05:07:38;;;;;;;33.30;25.17;;;;;;;6.67;60.10;99376.28;5074627;28;20178;-76
2021/03/14 05:10:10;;;;;;;35.63;26.50;;;;;;;6.35;60.36;99328.91;5074413;28;20025;-76
2021/03/14 05:12:35;;;;;;;41.88;28.55;;;;;;;6.00;60.07;99266.97;5074793;28;20036;-76
2021/03/14 05:15:04;;;;;;;42.93;27.77;;;;;;;6.63;60.00;99382.00;5074195;28;20033;-78
2021/03/14 05:17:30;;;;;;;41.00;29.10;;;;;;;6.26;60.14;99317.56;5074320;28;20039;-76
2021/03/14 05:19:56;;;;;;;40.67;29.60;;;;;;;6.62;60.06;99378.53;5056380;28;20029;-77
2021/03/14 05:22:22;;;;;;;45.07;29.80;;;;;;;6.11;60.15;99298.16;5074365;28;20062;-80
2021/03/14 05:24:49;;;;;;;46.40;32.13;;;;;;;6.69;59.65;99387.47;5074271;28;20032;-77
2021/03/14 05:27:15;;;;;;;41.40;30.07;;;;;;;6.71;59.73;99389.09;5074576;28;20347;-78
2021/03/14 05:29:45;;;;;;;42.13;30.37;;;;;;;6.57;60.30;99366.88;5082061;28;20048;-81
2021/03/14 05:32:11;;;;;;;43.77;31.27;;;;;;;6.48;59.92;99362.56;5079575;28;20058;-80
2021/03/14 05:34:37;;;;;;;45.00;32.17;;;;;;;6.68;60.26;99392.84;5074323;28;20036;-81
2021/03/14 05:37:02;;;;;;;53.03;37.63;;;;;;;6.24;60.06;99330.00;5074180;28;20427;-80
2021/03/14 05:39:28;;;;;;;58.97;42.00;;;;;;;6.56;59.78;99388.84;5074247;28;20480;-79
2021/03/14 05:41:54;;;;;;;50.17;37.65;;;;;;;6.20;60.35;99339.16;5074132;28;20028;-81
2021/03/14 05:44:20;;;;;;;49.15;34.50;;;;;;;6.75;59.69;99401.75;5074232;28;20021;-82
2021/03/14 05:46:45;;;;;;;56.80;37.97;;;;;;;6.85;59.61;99399.00;5073896;28;20423;-81
2021/03/14 05:49:11;;;;;;;44.40;31.33;;;;;;;6.51;60.07;99338.66;5075244;28;20040;-79
2021/03/14 05:51:42;;;;;;;46.90;32.47;;;;;;;6.80;60.24;99381.13;5077645;28;20032;-80
2021/03/14 05:54:11;;;;;;;48.70;33.90;;;;;;;6.89;60.06;99405.59;5077692;28;20032;-78
2021/03/14 05:56:40;;;;;;;42.03;31.95;;;;;;;6.94;60.11;99396.25;5077433;28;20028;-82
2021/03/14 05:59:08;;;;;;;43.67;32.50;;;;;;;6.58;59.99;99345.75;5077458;28;20031;-79
2021/03/14 06:01:33;;;;;;;45.50;32.55;;;;;;;6.87;59.68;99361.13;5059791;28;20028;-80
2021/03/14 06:04:00;;;;;;;41.70;30.23;;;;;;;7.08;59.91;99394.00;5077350;28;20035;-77
2021/03/14 06:06:25;;;;;;;43.53;33.85;;;;;;;6.45;60.17;99285.03;5077341;28;20028;-77
2021/03/14 06:08:51;;;;;;;53.33;38.22;;;;;;;7.14;59.83;99393.38;5077356;28;20346;-80
2021/03/14 06:11:17;;;;;;;54.47;40.15;;;;;;;6.09;59.83;99223.28;5059719;28;20024;-80
2021/03/14 06:13:44;;;;;;;57.63;39.53;;;;;;;6.15;59.89;99225.25;5077152;28;20032;-80
2021/03/14 06:16:09;;;;;;;65.47;44.60;;;;;;;6.62;59.99;99291.16;5077117;28;20364;-80
2021/03/14 06:18:35;;;;;;;66.22;44.05;;;;;;;7.25;60.42;99379.94;5077214;28;20036;-81
2021/03/14 06:21:03;;;;;;;61.53;43.85;;;;;;;6.99;59.81;99332.78;5059540;28;20029;-80
2021/03/14 06:23:28;;;;;;;66.90;46.60;;;;;;;6.43;59.88;99218.00;5077191;28;20027;-80
2021/03/14 06:25:56;;;;;;;59.67;41.25;;;;;;;7.50;60.00;99386.91;5077376;28;20021;-79
2021/03/14 06:28:35;;;;;;;59.75;40.65;;;;;;;6.92;60.94;99287.16;5077473;28;20397;-79
2021/03/14 06:31:21;;;;;;;53.03;36.92;;;;;;;7.73;60.30;99410.75;5077078;28;20058;-80
2021/03/14 06:33:47;;;;;;;58.35;41.55;;;;;;;6.55;60.14;99203.59;5077138;28;20032;-79
2021/03/14 06:36:22;;;;;;;64.97;43.20;;;;;;;7.44;60.68;99321.88;5080265;28;20028;-79
2021/03/14 06:38:50;;;;;;;61.80;43.92;;;;;;;7.80;61.30;99380.19;5061353;28;20120;-82
2021/03/14 06:41:20;;;;;;;61.80;43.38;;;;;;;7.98;61.13;99391.38;5077389;28;20038;-79
2021/03/14 06:43:54;;;;;;;59.80;40.90;;;;;;;8.06;60.46;99403.69;5077112;28;20039;-80
2021/03/14 06:46:29;;;;;;;59.10;40.22;;;;;;;8.11;61.30;99398.75;5059325;28;20017;-80
2021/03/14 06:49:14;;;;;;;55.03;39.65;;;;;;;7.59;61.56;99322.88;5076771;28;20028;-80
2021/03/14 06:51:41;;;;;;;53.00;37.33;;;;;;;7.45;61.02;99273.63;5076755;28;20445;-81
2021/03/14 06:54:20;;;;;;;52.28;36.55;;;;;;;8.33;61.58;99409.59;5076719;28;20411;-79
2021/03/14 06:57:15;;;;;;;55.85;38.30;;;;;;;8.42;61.22;99408.63;5076490;28;20020;-80
2021/03/14 06:59:47;;;;;;;56.53;39.88;;;;;;;8.17;61.04;99360.44;5076952;28;20082;-80
2021/03/14 07:02:14;;;;;;;55.13;37.80;;;;;;;8.59;60.70;99416.31;5075834;28;20035;-81
2021/03/14 07:04:48;;;;;;;54.85;38.40;;;;;;;8.70;60.77;99411.69;5076470;28;20055;-80
2021/03/14 07:07:42;;;;;;;61.42;39.72;;;;;;;8.72;60.85;99421.06;5077257;28;20418;-80
2021/03/14 07:10:16;;;;;;;53.90;39.13;;;;;;;8.81;60.69;99406.06;5058759;28;20032;-80
2021/03/14 07:12:44;;;;;;;51.58;38.10;;;;;;;8.92;60.49;99400.44;5058472;28;20104;-79
2021/03/14 07:15:17;;;;;;;55.53;40.83;;;;;;;9.01;60.16;99399.41;5058697;28;20044;-81
2021/03/14 07:17:52;;;;;;;61.03;42.22;;;;;;;8.97;60.12;99389.41;5076494;28;20024;-80
2021/03/14 07:20:21;;;;;;;56.50;39.65;;;;;;;9.12;60.33;99412.22;5058712;28;20354;-80
2021/03/14 07:23:04;;;;;;;60.05;40.50;;;;;;;9.21;60.34;99411.19;5076140;28;20103;-80
2021/03/14 07:25:41;;;;;;;56.63;40.08;;;;;;;9.30;59.90;99409.31;5076135;28;20074;-84
2021/03/14 07:28:07;;;;;;;59.17;41.88;;;;;;;8.51;59.61;99270.81;5076142;28;20028;-83
2021/03/14 07:30:33;;;;;;;58.85;41.65;;;;;;;9.20;59.54;99371.84;5076118;28;20035;-83
2021/03/14 07:32:58;;;;;;;56.28;41.05;;;;;;;8.97;59.66;99320.94;5076156;28;20452;-82
2021/03/14 07:35:25;;;;;;;57.75;41.67;;;;;;;9.23;59.56;99334.59;5058306;28;20048;-83
2021/03/14 07:37:52;;;;;;;63.00;42.08;;;;;;;9.69;59.64;99390.00;5058735;28;20043;-84
2021/03/14 07:40:23;;;;;;;61.55;44.92;;;;;;;9.24;59.43;99312.53;5077628;28;20094;-79
2021/03/14 07:42:49;;;;;;;56.97;42.38;;;;;;;9.45;59.52;99339.06;5079015;28;20461;-77
2021/03/14 07:45:17;;;;;;;66.57;46.83;;;;;;;9.88;59.41;99386.88;5085926;28;20025;-77
2021/03/14 07:47:44;;;;;;;86.05;60.55;;;;;;;9.96;59.26;99388.63;5058272;28;20032;-78
2021/03/14 07:50:33;;;;;;;85.00;63.25;;;;;;;9.68;59.47;99333.00;5075917;28;20394;-77
2021/03/14 07:53:10;;;;;;;85.47;59.78;;;;;;;9.22;59.40;99233.69;5065069;28;20040;-81
2021/03/14 07:55:37;;;;;;;64.13;42.97;;;;;;;10.18;59.36;99362.22;5075771;28;20027;-79
2021/03/14 07:58:04;;;;;;;49.88;36.03;;;;;;;10.31;59.29;99368.72;5057649;28;20123;-79
2021/03/14 08:00:34;;;;;;;45.75;34.95;;;;;;;10.23;59.73;99350.31;5075543;28;20484;-78
2021/03/14 08:03:00;;;;;;;46.78;34.28;;;;;;;10.38;59.70;99380.19;5075226;28;20024;-79
2021/03/14 08:05:40;;;;;;;48.22;35.28;;;;;;;10.39;60.34;99373.91;5075316;28;20453;-80
2021/03/14 08:08:24;;;;;;;45.00;33.63;;;;;;;10.19;58.89;99332.19;5057437;28;20127;-80
2021/03/14 08:10:50;;;;;;;43.85;32.55;;;;;;;10.36;59.45;99345.25;5057718;28;20024;-80
2021/03/14 08:13:37;;;;;;;43.58;32.60;;;;;;;10.61;59.20;99373.03;5056620;28;20029;-78
2021/03/14 08:16:04;;;;;;;41.17;30.38;;;;;;;10.61;59.50;99362.47;5074942;28;20419;-79
2021/03/14 08:18:34;;;;;;;39.20;30.80;;;;;;;10.25;59.48;99303.47;5075359;28;20350;-81
2021/03/14 08:21:00;;;;;;;41.67;30.02;;;;;;;10.27;58.90;99296.19;5057328;28;20024;-78
2021/03/14 08:23:40;;;;;;;46.05;32.35;;;;;;;10.67;59.33;99355.63;5075357;28;20027;-79
2021/03/14 08:26:16;;;;;;;39.95;29.02;;;;;;;10.77;58.84;99342.97;5074998;28;20028;-79
2021/03/14 08:28:52;;;;;;;36.83;29.73;;;;;;;11.01;58.80;99355.03;5075375;28;20028;-78
2021/03/14 08:31:36;;;;;;;32.97;26.23;;;;;;;10.81;58.62;99292.25;5075455;28;20453;-77
2021/03/14 08:34:02;;;;;;;46.45;33.90;;;;;;;11.13;57.92;99319.22;5075689;28;20178;-77
2021/03/14 08:36:39;;;;;;;48.60;35.33;;;;;;;11.25;58.18;99344.16;5075380;28;20114;-79
2021/03/14 08:39:20;;;;;;;44.58;32.53;;;;;;;11.28;57.98;99341.16;5075233;28;20077;-78
2021/03/14 08:41:50;;;;;;;44.15;32.90;;;;;;;11.41;58.04;99338.66;5075365;28;20050;-77
2021/03/14 08:44:34;;;;;;;41.90;30.60;;;;;;;11.56;57.80;99329.81;5075511;28;20491;-78
2021/03/14 08:47:11;;;;;;;40.45;31.17;;;;;;;11.52;57.71;99302.13;5075412;28;20032;-80
2021/03/14 08:49:39;;;;;;;39.25;30.50;;;;;;;11.81;57.03;99322.34;5075282;28;20029;-78
2021/03/14 08:52:07;;;;;;;36.17;29.13;;;;;;;11.90;56.71;99316.75;5061590;28;20028;-78
2021/03/14 08:54:35;;;;;;;39.15;31.90;;;;;;;11.76;56.98;99281.38;5075942;28;20158;-80
2021/03/14 08:57:04;;;;;;;39.38;29.23;;;;;;;12.11;57.06;99317.72;5075419;28;20031;-78
2021/03/14 08:59:30;;;;;;;38.45;30.50;;;;;;;11.91;56.28;99275.25;5075435;28;20496;-79
2021/03/14 09:01:58;;;;;;;33.40;28.25;;;;;;;12.14;55.69;99285.56;5057172;28;20103;-79
2021/03/14 09:04:33;;;;;;;37.88;29.25;;;;;;;12.02;55.21;99241.13;5057167;28;20119;-79
2021/03/14 09:07:07;;;;;;;36.92;28.52;;;;;;;11.93;55.19;99202.59;5057388;28;20028;-80
2021/03/14 09:09:34;;;;;;;35.55;28.42;;;;;;;12.52;55.15;99293.91;5056753;28;20028;-78
2021/03/14 09:12:05;;;;;;;41.50;29.42;;;;;;;12.61;55.02;99288.25;5074616;28;20551;-81
2021/03/14 09:14:35;;;;;;;36.60;29.63;;;;;;;12.50;55.29;99267.63;5074800;28;20029;-80
2021/03/14 09:17:02;;;;;;;35.83;28.42;;;;;;;12.90;54.55;99294.31;5074591;28;20111;-82
2021/03/14 09:19:56;;;;;;;42.40;29.30;;;;;;;12.88;54.27;99277.78;5074599;28;20146;-79
2021/03/14 09:22:27;;;;;;;40.70;30.38;;;;;;;12.47;54.72;99216.91;5054060;28;20040;-80
2021/03/14 09:25:04;;;;;;;39.17;28.50;;;;;;;12.88;54.61;99283.09;5059320;28;20029;-79
2021/03/14 09:27:42;;;;;;;38.92;28.20;;;;;;;13.07;54.24;99268.25;5078231;28;20270;-80
2021/03/14 09:30:07;;;;;;;41.08;28.48;;;;;;;13.26;53.89;99268.31;5078443;28;20024;-80
2021/03/14 09:32:46;;;;;;;37.10;28.85;;;;;;;13.38;53.29;99262.41;5078379;28;20069;-80
2021/03/14 09:35:24;;;;;;;32.30;24.77;;;;;;;13.45;53.35;99261.44;5078253;28;20032;-78
2021/03/14 09:38:14;;;;;;;31.48;26.40;;;;;;;13.46;53.29;99233.06;5078144;28;20032;-79
2021/03/14 09:40:44;;;;;;;34.08;26.10;;;;;;;13.54;52.98;99211.66;5078210;28;20455;-79
2021/03/14 09:43:16;;;;;;;38.88;29.17;;;;;;;14.02;52.66;99241.38;5078564;28;20111;-80
2021/03/14 09:45:50;;;;;;;48.28;36.90;;;;;;;14.13;52.23;99245.25;5078300;28;20032;-80
2021/03/14 09:48:23;;;;;;;43.85;33.35;;;;;;;14.07;51.95;99198.28;5078066;28;20358;-79
2021/03/14 09:50:56;;;;;;;47.38;35.03;;;;;;;14.27;51.93;99247.66;5078598;28;20029;-80
2021/03/14 09:53:26;;;;;;;49.97;38.53;;;;;;;14.16;52.19;99200.53;5078600;28;20403;-79
2021/03/14 09:55:57;;;;;;;48.95;35.60;;;;;;;14.39;52.23;99231.91;5060558;28;20051;-78
2021/03/14 09:58:24;;;;;;;45.42;34.85;;;;;;;14.54;51.90;99232.47;5083967;23;20371;-80
2021/03/14 10:00:52;;;;;;;45.60;36.10;;;;;;;14.73;51.62;99219.31;5087934;28;20039;-79
2021/03/14 10:03:20;;;;;;;45.00;34.33;;;;;;;14.84;51.15;99222.09;5061216;28;20035;-80
2021/03/14 10:05:55;;;;;;;44.53;35.15;;;;;;;14.89;51.05;99203.72;5060343;28;20055;-82
2021/03/14 10:08:22;;;;;;;41.53;32.65;;;;;;;14.99;50.51;99211.22;5078096;28;20024;-78
2021/03/14 10:10:50;;;;;;;44.28;31.77;;;;;;;15.19;50.54;99200.44;5059911;28;20055;-80
2021/03/14 10:13:16;;;;;;;42.42;33.35;;;;;;;15.35;50.42;99201.75;5078662;28;20031;-79
2021/03/14 10:15:42;;;;;;;39.13;32.25;;;;;;;15.21;50.25;99158.47;5064043;28;20028;-78
2021/03/14 10:18:08;;;;;;;36.70;28.02;;;;;;;15.66;50.29;99206.25;5078615;28;20039;-79
2021/03/14 10:20:35;;;;;;;33.58;27.60;;;;;;;15.49;49.74;99142.06;5078248;28;20392;-78
2021/03/14 10:23:06;;;;;;;40.40;28.35;;;;;;;15.47;49.35;99081.09;5059770;28;20055;-79
2021/03/14 10:25:34;;;;;;;38.75;29.35;;;;;;;16.27;49.13;99184.88;5059895;28;20029;-78
2021/03/14 10:28:17;;;;;;;36.03;26.92;;;;;;;15.96;49.08;99121.16;5077548;28;20031;-79
2021/03/14 10:30:47;;;;;;;28.98;24.40;;;;;;;16.56;48.50;99170.00;5059666;28;20033;-79
2021/03/14 10:33:14;;;;;;;24.90;21.30;;;;;;;16.49;48.64;99130.13;5077784;28;20024;-79
2021/03/14 10:35:41;;;;;;;37.97;28.58;;;;;;;16.91;47.99;99162.13;5075887;28;20093;-79
2021/03/14 10:38:21;;;;;;;37.00;29.90;;;;;;;16.64;48.13;99099.56;5077011;28;20381;-78
2021/03/14 10:40:48;;;;;;;33.55;25.80;;;;;;;17.16;47.66;99153.97;5076661;28;20051;-79
2021/03/14 10:43:31;;;;;;;27.80;23.02;;;;;;;16.80;48.23;99078.41;5076901;28;20402;-78
2021/03/14 10:45:57;;;;;;;25.42;21.85;;;;;;;17.30;47.42;99138.56;5077004;28;20032;-79
2021/03/14 10:48:27;;;;;;;25.95;21.95;;;;;;;17.47;47.48;99126.16;5076797;28;20465;-79
2021/03/14 10:51:07;;;;;;;23.48;18.98;;;;;;;17.20;47.21;99037.75;5076896;28;20028;-79
2021/03/14 10:53:33;;;;;;;24.25;19.77;;;;;;;17.88;47.04;99121.75;5058818;28;20135;-80
2021/03/14 10:56:06;;;;;;;21.83;18.83;;;;;;;17.93;46.88;99116.50;5076536;28;20127;-80
2021/03/14 10:58:50;;;;;;;22.55;19.17;;;;;;;17.78;46.82;99069.72;5058725;28;20036;-80
2021/03/14 11:01:30;;;;;;;21.85;19.02;;;;;;;17.94;46.56;99076.22;5059075;28;20074;-80
2021/03/14 11:04:02;;;;;;;32.90;25.25;;;;;;;18.18;46.55;99084.13;5058419;28;20376;-80
2021/03/14 11:06:28;;;;;;;23.92;20.08;;;;;;;18.30;46.44;99088.38;5059359;28;20016;-80
2021/03/14 11:09:06;;;;;;;22.85;18.48;;;;;;;18.07;46.75;99022.50;5087071;28;20028;-79
2021/03/14 11:11:59;;;;;;;21.83;18.25;;;;;;;18.64;45.93;99086.66;5065696;28;20147;-79
2021/03/14 11:14:30;;;;;;;17.20;15.18;;;;;;;18.55;45.93;99081.88;5048698;28;20363;-80
2021/03/14 11:17:09;;;;;;;;;;;;;;;18.61;45.58;99086.28;5069347;28;20025;-80
2021/03/14 11:19:37;;;;;;;14.73;12.77;;;;;;;18.78;45.70;99076.44;5076065;28;19915;-80
2021/03/14 11:22:04;;;;;;;14.60;12.35;;;;;;;18.86;45.53;99056.50;5058297;28;20186;-82
2021/03/14 11:24:29;;;;;;;19.05;14.63;;;;;;;19.12;45.04;99065.72;5076013;28;20028;-80
2021/03/14 11:26:55;;;;;;;18.23;15.60;;;;;;;18.73;44.79;98966.72;5075795;28;20043;-80
2021/03/14 11:29:21;;;;;;;17.85;15.95;;;;;;;19.31;44.74;99040.31;5075724;28;20029;-80
2021/03/14 11:31:46;;;;;;;18.73;15.70;;;;;;;19.18;44.52;99017.38;5058387;28;20032;-80